sensor_id;sensor_type;location;lat;lon;timestamp;temperature;humidity
10276;DHT22;5183;51.190;6.820;2022-09-03T00:01:15;19.00;33.00
10276;DHT22;5183;51.190;6.820;2022-09-03T00:03:47;18.90;29.90
10276;DHT22;5183;51.190;6.820;2022-09-03T00:06:20;18.90;30.50
10276;DHT22;5183;51.190;6.820;2022-09-03T00:08:54;18.90;34.00
10276;DHT22;5183;51.190;6.820;2022-09-03T00:11:26;18.80;42.30
10276;DHT22;5183;51.190;6.820;2022-09-03T00:13:59;18.80;42.70
10276;DHT22;5183;51.190;6.820;2022-09-03T00:16:36;18.90;37.70
10276;DHT22;5183;51.190;6.820;2022-09-03T00:19:06;18.80;49.50
10276;DHT22;5183;51.190;6.820;2022-09-03T00:21:38;18.80;45.10
10276;DHT22;5183;51.190;6.820;2022-09-03T00:24:09;18.80;48.70
10276;DHT22;5183;51.190;6.820;2022-09-03T00:26:41;18.80;47.30
10276;DHT22;5183;51.190;6.820;2022-09-03T00:29:14;18.80;50.90
10276;DHT22;5183;51.190;6.820;2022-09-03T00:31:45;18.80;53.70
10276;DHT22;5183;51.190;6.820;2022-09-03T00:34:17;18.70;54.40
10276;DHT22;5183;51.190;6.820;2022-09-03T00:36:46;18.70;78.00
10276;DHT22;5183;51.190;6.820;2022-09-03T00:39:16;18.70;60.90
10276;DHT22;5183;51.190;6.820;2022-09-03T00:41:52;18.70;64.30
10276;DHT22;5183;51.190;6.820;2022-09-03T00:47:26;18.60;86.10
10276;DHT22;5183;51.190;6.820;2022-09-03T00:50:03;18.70;62.10
10276;DHT22;5183;51.190;6.820;2022-09-03T00:52:42;18.70;67.40
10276;DHT22;5183;51.190;6.820;2022-09-03T00:55:18;18.60;71.70
10276;DHT22;5183;51.190;6.820;2022-09-03T00:57:56;18.60;76.40
10276;DHT22;5183;51.190;6.820;2022-09-03T01:00:24;18.50;74.90
10276;DHT22;5183;51.190;6.820;2022-09-03T01:03:01;18.50;74.70
10276;DHT22;5183;51.190;6.820;2022-09-03T01:05:41;18.50;79.90
10276;DHT22;5183;51.190;6.820;2022-09-03T01:08:19;18.40;96.10
10276;DHT22;5183;51.190;6.820;2022-09-03T01:10:53;18.40;86.80
10276;DHT22;5183;51.190;6.820;2022-09-03T01:13:27;18.50;87.00
10276;DHT22;5183;51.190;6.820;2022-09-03T01:16:02;18.50;79.30
10276;DHT22;5183;51.190;6.820;2022-09-03T01:18:37;18.50;81.20
10276;DHT22;5183;51.190;6.820;2022-09-03T01:21:22;18.50;88.70
10276;DHT22;5183;51.190;6.820;2022-09-03T01:24:14;18.40;85.80
10276;DHT22;5183;51.190;6.820;2022-09-03T01:27:08;18.40;97.60
10276;DHT22;5183;51.190;6.820;2022-09-03T01:29:45;18.40;99.90
10276;DHT22;5183;51.190;6.820;2022-09-03T01:32:21;18.40;92.00
10276;DHT22;5183;51.190;6.820;2022-09-03T01:35:04;18.40;94.20
10276;DHT22;5183;51.190;6.820;2022-09-03T01:37:42;18.40;91.70
10276;DHT22;5183;51.190;6.820;2022-09-03T01:40:17;18.30;94.80
10276;DHT22;5183;51.190;6.820;2022-09-03T01:43:00;18.20;97.60
10276;DHT22;5183;51.190;6.820;2022-09-03T01:45:46;18.30;96.30
10276;DHT22;5183;51.190;6.820;2022-09-03T01:48:31;18.20;99.90
10276;DHT22;5183;51.190;6.820;2022-09-03T01:51:08;18.20;99.90
10276;DHT22;5183;51.190;6.820;2022-09-03T01:53:50;18.20;99.90
10276;DHT22;5183;51.190;6.820;2022-09-03T01:56:30;18.20;99.90
10276;DHT22;5183;51.190;6.820;2022-09-03T01:59:03;18.20;99.90
10276;DHT22;5183;51.190;6.820;2022-09-03T02:01:36;18.10;99.90
10276;DHT22;5183;51.190;6.820;2022-09-03T02:04:14;18.20;99.90
10276;DHT22;5183;51.190;6.820;2022-09-03T02:06:41;18.10;99.90
10276;DHT22;5183;51.190;6.820;2022-09-03T02:09:09;18.00;99.90
10276;DHT22;5183;51.190;6.820;2022-09-03T02:11:36;18.00;99.90
10276;DHT22;5183;51.190;6.820;2022-09-03T02:14:04;18.00;99.90
10276;DHT22;5183;51.190;6.820;2022-09-03T02:16:34;18.00;99.90
10276;DHT22;5183;51.190;6.820;2022-09-03T02:19:03;17.90;99.90
10276;DHT22;5183;51.190;6.820;2022-09-03T02:21:34;17.80;99.90
10276;DHT22;5183;51.190;6.820;2022-09-03T02:24:03;17.80;99.90
10276;DHT22;5183;51.190;6.820;2022-09-03T02:26:30;17.70;99.90
10276;DHT22;5183;51.190;6.820;2022-09-03T02:28:57;17.70;99.90
10276;DHT22;5183;51.190;6.820;2022-09-03T02:31:25;17.70;99.90
10276;DHT22;5183;51.190;6.820;2022-09-03T02:33:55;17.60;99.90
10276;DHT22;5183;51.190;6.820;2022-09-03T02:36:25;17.60;99.90
10276;DHT22;5183;51.190;6.820;2022-09-03T02:38:53;17.60;99.90
10276;DHT22;5183;51.190;6.820;2022-09-03T02:41:20;17.50;99.90
10276;DHT22;5183;51.190;6.820;2022-09-03T02:43:52;17.50;99.90
10276;DHT22;5183;51.190;6.820;2022-09-03T02:46:22;17.50;99.90
10276;DHT22;5183;51.190;6.820;2022-09-03T02:48:51;17.50;99.90
10276;DHT22;5183;51.190;6.820;2022-09-03T02:51:20;17.50;99.90
10276;DHT22;5183;51.190;6.820;2022-09-03T02:53:46;17.40;99.90
10276;DHT22;5183;51.190;6.820;2022-09-03T02:56:13;17.40;99.90
10276;DHT22;5183;51.190;6.820;2022-09-03T02:58:40;17.40;99.90
10276;DHT22;5183;51.190;6.820;2022-09-03T03:01:07;17.30;99.90
10276;DHT22;5183;51.190;6.820;2022-09-03T03:03:34;17.30;99.90
10276;DHT22;5183;51.190;6.820;2022-09-03T03:06:03;17.40;99.90
10276;DHT22;5183;51.190;6.820;2022-09-03T03:08:32;17.40;99.90
10276;DHT22;5183;51.190;6.820;2022-09-03T03:11:00;17.40;99.90
10276;DHT22;5183;51.190;6.820;2022-09-03T03:13:28;17.40;99.90
10276;DHT22;5183;51.190;6.820;2022-09-03T03:15:55;17.50;99.90
10276;DHT22;5183;51.190;6.820;2022-09-03T03:18:22;17.40;99.90
10276;DHT22;5183;51.190;6.820;2022-09-03T03:20:49;17.40;99.90
10276;DHT22;5183;51.190;6.820;2022-09-03T03:23:16;17.50;99.90
10276;DHT22;5183;51.190;6.820;2022-09-03T03:25:44;17.40;99.90
10276;DHT22;5183;51.190;6.820;2022-09-03T03:28:12;17.40;99.90
10276;DHT22;5183;51.190;6.820;2022-09-03T03:30:40;17.40;99.90
10276;DHT22;5183;51.190;6.820;2022-09-03T03:33:07;17.40;99.90
10276;DHT22;5183;51.190;6.820;2022-09-03T03:35:34;17.40;99.90
10276;DHT22;5183;51.190;6.820;2022-09-03T03:38:02;17.30;99.90
10276;DHT22;5183;51.190;6.820;2022-09-03T03:40:29;17.20;99.90
10276;DHT22;5183;51.190;6.820;2022-09-03T03:42:58;17.20;99.90
10276;DHT22;5183;51.190;6.820;2022-09-03T03:45:25;17.20;99.90
10276;DHT22;5183;51.190;6.820;2022-09-03T03:47:56;17.10;99.90
10276;DHT22;5183;51.190;6.820;2022-09-03T03:50:23;17.10;99.90
10276;DHT22;5183;51.190;6.820;2022-09-03T03:52:50;17.10;99.90
10276;DHT22;5183;51.190;6.820;2022-09-03T03:55:16;17.10;99.90
10276;DHT22;5183;51.190;6.820;2022-09-03T03:57:43;17.00;99.90
10276;DHT22;5183;51.190;6.820;2022-09-03T04:00:13;17.00;99.90
10276;DHT22;5183;51.190;6.820;2022-09-03T04:02:40;17.00;99.90
10276;DHT22;5183;51.190;6.820;2022-09-03T04:05:08;17.00;99.90
10276;DHT22;5183;51.190;6.820;2022-09-03T04:07:35;17.00;99.90
10276;DHT22;5183;51.190;6.820;2022-09-03T04:10:02;17.00;99.90
10276;DHT22;5183;51.190;6.820;2022-09-03T04:12:29;17.00;99.90
10276;DHT22;5183;51.190;6.820;2022-09-03T04:14:55;17.00;99.90
10276;DHT22;5183;51.190;6.820;2022-09-03T04:17:24;16.90;99.90
10276;DHT22;5183;51.190;6.820;2022-09-03T04:19:50;16.90;99.90
10276;DHT22;5183;51.190;6.820;2022-09-03T04:22:17;16.90;99.90
10276;DHT22;5183;51.190;6.820;2022-09-03T04:24:45;16.80;99.90
10276;DHT22;5183;51.190;6.820;2022-09-03T04:27:12;16.90;99.90
10276;DHT22;5183;51.190;6.820;2022-09-03T04:29:38;16.90;99.90
10276;DHT22;5183;51.190;6.820;2022-09-03T04:32:05;16.90;99.90
10276;DHT22;5183;51.190;6.820;2022-09-03T04:34:51;16.90;99.90
10276;DHT22;5183;51.190;6.820;2022-09-03T04:37:18;16.80;99.90
10276;DHT22;5183;51.190;6.820;2022-09-03T04:39:45;16.80;99.90
10276;DHT22;5183;51.190;6.820;2022-09-03T04:42:12;16.80;99.90
10276;DHT22;5183;51.190;6.820;2022-09-03T04:44:39;16.80;99.90
10276;DHT22;5183;51.190;6.820;2022-09-03T04:47:06;16.80;99.90
10276;DHT22;5183;51.190;6.820;2022-09-03T04:49:32;16.80;99.90
10276;DHT22;5183;51.190;6.820;2022-09-03T04:52:01;16.80;99.90
10276;DHT22;5183;51.190;6.820;2022-09-03T04:54:28;16.80;99.90
10276;DHT22;5183;51.190;6.820;2022-09-03T04:56:55;16.80;99.90
10276;DHT22;5183;51.190;6.820;2022-09-03T04:59:22;16.80;99.90
10276;DHT22;5183;51.190;6.820;2022-09-03T05:01:49;16.80;99.90
10276;DHT22;5183;51.190;6.820;2022-09-03T05:04:17;16.80;99.90
10276;DHT22;5183;51.190;6.820;2022-09-03T05:06:44;16.90;99.90
10276;DHT22;5183;51.190;6.820;2022-09-03T05:09:12;17.00;99.90
10276;DHT22;5183;51.190;6.820;2022-09-03T05:11:39;16.90;99.90
10276;DHT22;5183;51.190;6.820;2022-09-03T05:14:06;17.00;99.90
10276;DHT22;5183;51.190;6.820;2022-09-03T05:16:37;17.00;99.90
10276;DHT22;5183;51.190;6.820;2022-09-03T05:19:04;17.00;99.90
10276;DHT22;5183;51.190;6.820;2022-09-03T05:21:33;17.00;99.90
10276;DHT22;5183;51.190;6.820;2022-09-03T05:24:01;17.00;99.90
10276;DHT22;5183;51.190;6.820;2022-09-03T05:26:32;17.00;99.90
10276;DHT22;5183;51.190;6.820;2022-09-03T05:29:03;16.90;99.90
10276;DHT22;5183;51.190;6.820;2022-09-03T05:31:33;17.00;99.90
10276;DHT22;5183;51.190;6.820;2022-09-03T05:34:02;16.90;99.90
10276;DHT22;5183;51.190;6.820;2022-09-03T05:36:31;17.00;99.90
10276;DHT22;5183;51.190;6.820;2022-09-03T05:38:58;17.00;99.90
10276;DHT22;5183;51.190;6.820;2022-09-03T05:41:26;17.00;99.90
10276;DHT22;5183;51.190;6.820;2022-09-03T05:43:56;17.00;99.90
10276;DHT22;5183;51.190;6.820;2022-09-03T05:46:25;17.10;99.90
10276;DHT22;5183;51.190;6.820;2022-09-03T05:48:56;17.10;99.90
10276;DHT22;5183;51.190;6.820;2022-09-03T05:51:23;17.10;99.90
10276;DHT22;5183;51.190;6.820;2022-09-03T05:53:50;17.10;99.90
10276;DHT22;5183;51.190;6.820;2022-09-03T05:56:19;17.20;99.90
10276;DHT22;5183;51.190;6.820;2022-09-03T05:58:47;17.20;99.90
10276;DHT22;5183;51.190;6.820;2022-09-03T06:01:17;17.20;99.90
10276;DHT22;5183;51.190;6.820;2022-09-03T06:03:46;17.30;99.90
10276;DHT22;5183;51.190;6.820;2022-09-03T06:06:14;17.30;99.90
10276;DHT22;5183;51.190;6.820;2022-09-03T06:08:41;17.30;99.90
10276;DHT22;5183;51.190;6.820;2022-09-03T06:11:09;17.30;99.90
10276;DHT22;5183;51.190;6.820;2022-09-03T06:13:37;17.30;99.90
10276;DHT22;5183;51.190;6.820;2022-09-03T06:16:05;17.40;99.90
10276;DHT22;5183;51.190;6.820;2022-09-03T06:18:34;17.40;99.90
10276;DHT22;5183;51.190;6.820;2022-09-03T06:21:02;17.50;99.90
10276;DHT22;5183;51.190;6.820;2022-09-03T06:23:30;17.60;99.90
10276;DHT22;5183;51.190;6.820;2022-09-03T06:26:02;17.60;99.90
10276;DHT22;5183;51.190;6.820;2022-09-03T06:28:29;17.70;99.90
10276;DHT22;5183;51.190;6.820;2022-09-03T06:30:57;17.70;99.90
10276;DHT22;5183;51.190;6.820;2022-09-03T06:33:24;17.80;99.90
10276;DHT22;5183;51.190;6.820;2022-09-03T06:35:54;17.80;99.90
10276;DHT22;5183;51.190;6.820;2022-09-03T06:38:25;17.90;99.90
10276;DHT22;5183;51.190;6.820;2022-09-03T06:40:54;18.00;99.90
10276;DHT22;5183;51.190;6.820;2022-09-03T06:43:21;18.10;99.90
10276;DHT22;5183;51.190;6.820;2022-09-03T06:45:53;18.20;99.90
10276;DHT22;5183;51.190;6.820;2022-09-03T06:48:20;18.30;99.90
10276;DHT22;5183;51.190;6.820;2022-09-03T06:50:54;18.30;99.90
10276;DHT22;5183;51.190;6.820;2022-09-03T06:53:23;18.50;99.90
10276;DHT22;5183;51.190;6.820;2022-09-03T06:55:54;18.60;99.90
10276;DHT22;5183;51.190;6.820;2022-09-03T06:58:21;18.60;99.90
10276;DHT22;5183;51.190;6.820;2022-09-03T07:00:49;18.70;99.90
10276;DHT22;5183;51.190;6.820;2022-09-03T07:03:18;18.80;99.90
10276;DHT22;5183;51.190;6.820;2022-09-03T07:05:46;18.90;99.90
10276;DHT22;5183;51.190;6.820;2022-09-03T07:08:14;18.90;99.90
10276;DHT22;5183;51.190;6.820;2022-09-03T07:10:45;19.00;99.90
10276;DHT22;5183;51.190;6.820;2022-09-03T07:13:13;19.10;99.90
10276;DHT22;5183;51.190;6.820;2022-09-03T07:15:40;19.20;99.90
10276;DHT22;5183;51.190;6.820;2022-09-03T07:18:07;19.30;99.90
10276;DHT22;5183;51.190;6.820;2022-09-03T07:20:34;19.40;99.90
10276;DHT22;5183;51.190;6.820;2022-09-03T07:23:01;19.60;99.90
10276;DHT22;5183;51.190;6.820;2022-09-03T07:25:29;19.70;99.90
10276;DHT22;5183;51.190;6.820;2022-09-03T07:27:56;19.80;99.90
10276;DHT22;5183;51.190;6.820;2022-09-03T07:30:24;19.90;99.90
10276;DHT22;5183;51.190;6.820;2022-09-03T07:32:52;20.00;99.90
10276;DHT22;5183;51.190;6.820;2022-09-03T07:35:19;20.00;99.90
10276;DHT22;5183;51.190;6.820;2022-09-03T07:37:50;20.10;99.90
10276;DHT22;5183;51.190;6.820;2022-09-03T07:40:17;20.10;99.90
10276;DHT22;5183;51.190;6.820;2022-09-03T07:42:45;20.10;99.90
10276;DHT22;5183;51.190;6.820;2022-09-03T07:45:12;20.20;99.90
10276;DHT22;5183;51.190;6.820;2022-09-03T07:47:45;20.20;99.90
10276;DHT22;5183;51.190;6.820;2022-09-03T07:50:14;20.30;99.90
10276;DHT22;5183;51.190;6.820;2022-09-03T07:52:41;20.30;99.90
10276;DHT22;5183;51.190;6.820;2022-09-03T07:55:09;20.40;99.90
10276;DHT22;5183;51.190;6.820;2022-09-03T07:57:36;20.40;99.90
10276;DHT22;5183;51.190;6.820;2022-09-03T08:00:05;20.50;99.90
10276;DHT22;5183;51.190;6.820;2022-09-03T08:02:32;20.50;99.90
10276;DHT22;5183;51.190;6.820;2022-09-03T08:04:59;20.50;99.90
10276;DHT22;5183;51.190;6.820;2022-09-03T08:07:28;20.50;99.90
10276;DHT22;5183;51.190;6.820;2022-09-03T08:09:55;20.40;99.90
10276;DHT22;5183;51.190;6.820;2022-09-03T08:12:21;20.50;99.90
10276;DHT22;5183;51.190;6.820;2022-09-03T08:14:49;20.40;99.90
10276;DHT22;5183;51.190;6.820;2022-09-03T08:17:17;20.50;99.90
10276;DHT22;5183;51.190;6.820;2022-09-03T08:19:44;20.50;99.90
10276;DHT22;5183;51.190;6.820;2022-09-03T08:22:12;20.60;99.90
10276;DHT22;5183;51.190;6.820;2022-09-03T08:24:39;20.70;99.90
10276;DHT22;5183;51.190;6.820;2022-09-03T08:27:07;20.70;99.90
10276;DHT22;5183;51.190;6.820;2022-09-03T08:29:34;20.60;99.90
10276;DHT22;5183;51.190;6.820;2022-09-03T08:32:03;20.70;99.90
10276;DHT22;5183;51.190;6.820;2022-09-03T08:34:31;20.60;99.90
10276;DHT22;5183;51.190;6.820;2022-09-03T08:36:58;20.60;99.90
10276;DHT22;5183;51.190;6.820;2022-09-03T08:39:26;20.60;99.90
10276;DHT22;5183;51.190;6.820;2022-09-03T08:42:32;20.60;99.90
10276;DHT22;5183;51.190;6.820;2022-09-03T08:45:06;20.60;99.90
10276;DHT22;5183;51.190;6.820;2022-09-03T08:47:38;20.50;99.90
10276;DHT22;5183;51.190;6.820;2022-09-03T08:50:21;20.50;99.90
10276;DHT22;5183;51.190;6.820;2022-09-03T08:52:51;20.60;99.90
10276;DHT22;5183;51.190;6.820;2022-09-03T08:55:25;20.70;99.90
10276;DHT22;5183;51.190;6.820;2022-09-03T08:58:05;20.60;99.90
10276;DHT22;5183;51.190;6.820;2022-09-03T09:00:43;20.80;99.90
10276;DHT22;5183;51.190;6.820;2022-09-03T09:03:42;20.80;99.90
10276;DHT22;5183;51.190;6.820;2022-09-03T09:06:20;20.90;99.90
10276;DHT22;5183;51.190;6.820;2022-09-03T09:08:58;21.00;99.90
10276;DHT22;5183;51.190;6.820;2022-09-03T09:11:37;21.20;99.90
10276;DHT22;5183;51.190;6.820;2022-09-03T09:14:13;21.40;99.90
10276;DHT22;5183;51.190;6.820;2022-09-03T09:16:48;21.60;99.90
10276;DHT22;5183;51.190;6.820;2022-09-03T09:19:33;21.70;99.90
10276;DHT22;5183;51.190;6.820;2022-09-03T09:22:09;21.80;99.90
10276;DHT22;5183;51.190;6.820;2022-09-03T09:24:39;21.80;99.90
10276;DHT22;5183;51.190;6.820;2022-09-03T09:27:07;21.80;99.90
10276;DHT22;5183;51.190;6.820;2022-09-03T09:29:36;21.70;99.90
10276;DHT22;5183;51.190;6.820;2022-09-03T09:32:07;21.70;99.90
10276;DHT22;5183;51.190;6.820;2022-09-03T09:34:34;21.60;99.90
10276;DHT22;5183;51.190;6.820;2022-09-03T09:37:05;21.50;99.90
10276;DHT22;5183;51.190;6.820;2022-09-03T09:39:33;21.50;99.90
10276;DHT22;5183;51.190;6.820;2022-09-03T09:42:04;21.60;99.90
10276;DHT22;5183;51.190;6.820;2022-09-03T09:44:34;21.70;99.90
10276;DHT22;5183;51.190;6.820;2022-09-03T09:47:05;21.70;99.90
10276;DHT22;5183;51.190;6.820;2022-09-03T09:49:34;21.70;99.90
10276;DHT22;5183;51.190;6.820;2022-09-03T09:52:07;21.70;99.90
10276;DHT22;5183;51.190;6.820;2022-09-03T09:54:36;21.60;99.90
10276;DHT22;5183;51.190;6.820;2022-09-03T09:57:06;21.60;99.90
10276;DHT22;5183;51.190;6.820;2022-09-03T09:59:34;21.50;99.90
10276;DHT22;5183;51.190;6.820;2022-09-03T10:02:11;21.50;99.90
10276;DHT22;5183;51.190;6.820;2022-09-03T10:04:39;21.50;99.90
10276;DHT22;5183;51.190;6.820;2022-09-03T10:07:21;21.50;99.90
10276;DHT22;5183;51.190;6.820;2022-09-03T10:09:58;21.50;99.90
10276;DHT22;5183;51.190;6.820;2022-09-03T10:12:29;21.50;99.90
10276;DHT22;5183;51.190;6.820;2022-09-03T10:15:08;21.50;99.90
10276;DHT22;5183;51.190;6.820;2022-09-03T10:17:43;21.50;99.90
10276;DHT22;5183;51.190;6.820;2022-09-03T10:20:18;21.60;99.90
10276;DHT22;5183;51.190;6.820;2022-09-03T10:23:04;21.60;99.90
10276;DHT22;5183;51.190;6.820;2022-09-03T10:25:37;21.50;99.90
10276;DHT22;5183;51.190;6.820;2022-09-03T10:28:08;21.60;99.90
10276;DHT22;5183;51.190;6.820;2022-09-03T10:30:47;21.70;99.90
10276;DHT22;5183;51.190;6.820;2022-09-03T10:33:20;21.80;99.90
10276;DHT22;5183;51.190;6.820;2022-09-03T10:35:52;21.80;99.90
10276;DHT22;5183;51.190;6.820;2022-09-03T10:38:27;21.90;99.90
10276;DHT22;5183;51.190;6.820;2022-09-03T10:41:02;21.90;99.90
10276;DHT22;5183;51.190;6.820;2022-09-03T10:43:56;22.10;99.90
10276;DHT22;5183;51.190;6.820;2022-09-03T10:46:28;22.20;99.90
10276;DHT22;5183;51.190;6.820;2022-09-03T10:49:19;22.10;99.90
10276;DHT22;5183;51.190;6.820;2022-09-03T10:51:54;22.20;99.90
10276;DHT22;5183;51.190;6.820;2022-09-03T10:54:43;22.30;99.90
10276;DHT22;5183;51.190;6.820;2022-09-03T10:57:22;22.30;99.90
10276;DHT22;5183;51.190;6.820;2022-09-03T11:00:00;22.50;99.90
10276;DHT22;5183;51.190;6.820;2022-09-03T11:02:48;22.50;99.90
10276;DHT22;5183;51.190;6.820;2022-09-03T11:05:21;22.50;99.90
10276;DHT22;5183;51.190;6.820;2022-09-03T11:07:53;22.60;99.90
10276;DHT22;5183;51.190;6.820;2022-09-03T11:10:26;22.70;99.90
10276;DHT22;5183;51.190;6.820;2022-09-03T11:13:01;22.70;99.90
10276;DHT22;5183;51.190;6.820;2022-09-03T11:15:33;22.70;99.90
10276;DHT22;5183;51.190;6.820;2022-09-03T11:18:06;22.80;99.90
10276;DHT22;5183;51.190;6.820;2022-09-03T11:20:34;22.90;99.90
10276;DHT22;5183;51.190;6.820;2022-09-03T11:23:03;22.90;99.90
10276;DHT22;5183;51.190;6.820;2022-09-03T11:25:34;23.00;99.90
10276;DHT22;5183;51.190;6.820;2022-09-03T11:28:11;23.00;99.90
10276;DHT22;5183;51.190;6.820;2022-09-03T11:30:51;23.20;99.90
10276;DHT22;5183;51.190;6.820;2022-09-03T11:33:22;23.40;99.90
10276;DHT22;5183;51.190;6.820;2022-09-03T11:35:55;23.50;99.90
10276;DHT22;5183;51.190;6.820;2022-09-03T11:38:22;23.70;99.90
10276;DHT22;5183;51.190;6.820;2022-09-03T11:41:09;23.90;99.90
10276;DHT22;5183;51.190;6.820;2022-09-03T11:43:37;24.00;99.90
10276;DHT22;5183;51.190;6.820;2022-09-03T11:46:08;24.10;99.90
10276;DHT22;5183;51.190;6.820;2022-09-03T11:48:39;24.30;99.90
10276;DHT22;5183;51.190;6.820;2022-09-03T11:51:29;24.50;99.90
10276;DHT22;5183;51.190;6.820;2022-09-03T11:53:58;24.70;99.90
10276;DHT22;5183;51.190;6.820;2022-09-03T11:56:28;25.00;99.90
10276;DHT22;5183;51.190;6.820;2022-09-03T11:59:05;25.20;99.90
10276;DHT22;5183;51.190;6.820;2022-09-03T12:01:43;25.50;99.90
10276;DHT22;5183;51.190;6.820;2022-09-03T12:04:17;25.90;92.80
10276;DHT22;5183;51.190;6.820;2022-09-03T12:07:05;26.30;80.40
10276;DHT22;5183;51.190;6.820;2022-09-03T12:10:03;26.80;82.60
10276;DHT22;5183;51.190;6.820;2022-09-03T12:12:44;27.20;70.90
10276;DHT22;5183;51.190;6.820;2022-09-03T12:15:25;27.40;37.70
10276;DHT22;5183;51.190;6.820;2022-09-03T12:17:59;27.60;31.40
10276;DHT22;5183;51.190;6.820;2022-09-03T12:20:45;27.80;29.40
10276;DHT22;5183;51.190;6.820;2022-09-03T12:23:13;28.20;21.00
10276;DHT22;5183;51.190;6.820;2022-09-03T12:25:51;28.20;18.70
10276;DHT22;5183;51.190;6.820;2022-09-03T12:28:22;28.20;13.10
10276;DHT22;5183;51.190;6.820;2022-09-03T12:30:50;28.30;16.60
10276;DHT22;5183;51.190;6.820;2022-09-03T12:33:19;28.30;17.80
10276;DHT22;5183;51.190;6.820;2022-09-03T12:35:55;28.20;12.70
10276;DHT22;5183;51.190;6.820;2022-09-03T12:38:23;28.10;12.60
10276;DHT22;5183;51.190;6.820;2022-09-03T12:40:50;28.00;16.70
10276;DHT22;5183;51.190;6.820;2022-09-03T12:43:17;28.00;28.10
10276;DHT22;5183;51.190;6.820;2022-09-03T12:45:48;28.10;14.80
10276;DHT22;5183;51.190;6.820;2022-09-03T12:48:17;28.10;13.60
10276;DHT22;5183;51.190;6.820;2022-09-03T12:50:45;28.20;11.70
10276;DHT22;5183;51.190;6.820;2022-09-03T12:53:15;28.30;10.10
10276;DHT22;5183;51.190;6.820;2022-09-03T12:55:46;28.40;12.90
10276;DHT22;5183;51.190;6.820;2022-09-03T12:58:18;28.70;5.60
10276;DHT22;5183;51.190;6.820;2022-09-03T13:00:51;28.80;7.60
10276;DHT22;5183;51.190;6.820;2022-09-03T13:03:25;28.70;4.20
10276;DHT22;5183;51.190;6.820;2022-09-03T13:05:55;28.70;9.90
10276;DHT22;5183;51.190;6.820;2022-09-03T13:08:26;28.70;4.20
10276;DHT22;5183;51.190;6.820;2022-09-03T13:10:57;28.80;2.60
10276;DHT22;5183;51.190;6.820;2022-09-03T13:13:26;28.90;1.90
10276;DHT22;5183;51.190;6.820;2022-09-03T13:18:49;29.10;1.00
10276;DHT22;5183;51.190;6.820;2022-09-03T13:21:27;29.10;1.00
10276;DHT22;5183;51.190;6.820;2022-09-03T13:26:51;29.00;1.00
10276;DHT22;5183;51.190;6.820;2022-09-03T13:29:33;29.10;1.00
10276;DHT22;5183;51.190;6.820;2022-09-03T13:32:13;29.30;1.00
10276;DHT22;5183;51.190;6.820;2022-09-03T13:34:47;29.40;1.00
10276;DHT22;5183;51.190;6.820;2022-09-03T13:37:24;29.60;1.00
10276;DHT22;5183;51.190;6.820;2022-09-03T13:39:56;29.80;1.00
10276;DHT22;5183;51.190;6.820;2022-09-03T13:42:26;29.80;1.00
10276;DHT22;5183;51.190;6.820;2022-09-03T13:45:02;29.90;1.00
10276;DHT22;5183;51.190;6.820;2022-09-03T13:47:38;29.90;1.00
10276;DHT22;5183;51.190;6.820;2022-09-03T13:50:28;29.90;1.00
10276;DHT22;5183;51.190;6.820;2022-09-03T13:52:58;30.10;1.00
10276;DHT22;5183;51.190;6.820;2022-09-03T13:55:31;30.20;1.00
10276;DHT22;5183;51.190;6.820;2022-09-03T13:58:05;30.40;1.00
10276;DHT22;5183;51.190;6.820;2022-09-03T14:00:39;30.40;1.00
10276;DHT22;5183;51.190;6.820;2022-09-03T14:03:16;30.40;1.00
10276;DHT22;5183;51.190;6.820;2022-09-03T14:05:59;30.20;1.00
10276;DHT22;5183;51.190;6.820;2022-09-03T14:08:31;30.30;1.00
10276;DHT22;5183;51.190;6.820;2022-09-03T14:11:05;30.40;1.00
10276;DHT22;5183;51.190;6.820;2022-09-03T14:13:52;30.40;1.00
10276;DHT22;5183;51.190;6.820;2022-09-03T14:16:28;30.20;1.00
10276;DHT22;5183;51.190;6.820;2022-09-03T14:19:05;30.00;1.00
10276;DHT22;5183;51.190;6.820;2022-09-03T14:21:42;29.70;1.00
10276;DHT22;5183;51.190;6.820;2022-09-03T14:24:14;29.60;1.00
10276;DHT22;5183;51.190;6.820;2022-09-03T14:26:50;29.70;1.00
10276;DHT22;5183;51.190;6.820;2022-09-03T14:29:20;30.10;1.00
10276;DHT22;5183;51.190;6.820;2022-09-03T14:32:26;30.30;1.00
10276;DHT22;5183;51.190;6.820;2022-09-03T14:35:11;30.70;1.00
10276;DHT22;5183;51.190;6.820;2022-09-03T14:38:01;31.00;1.00
10276;DHT22;5183;51.190;6.820;2022-09-03T14:40:38;31.10;1.00
10276;DHT22;5183;51.190;6.820;2022-09-03T14:43:20;31.20;1.00
10276;DHT22;5183;51.190;6.820;2022-09-03T14:46:11;31.40;1.00
10276;DHT22;5183;51.190;6.820;2022-09-03T14:48:53;31.40;1.00
10276;DHT22;5183;51.190;6.820;2022-09-03T14:51:34;31.00;1.00
10276;DHT22;5183;51.190;6.820;2022-09-03T14:54:15;30.50;1.00
10276;DHT22;5183;51.190;6.820;2022-09-03T14:56:48;30.10;1.00
10276;DHT22;5183;51.190;6.820;2022-09-03T14:59:38;29.70;1.00
10276;DHT22;5183;51.190;6.820;2022-09-03T15:02:36;29.50;1.00
10276;DHT22;5183;51.190;6.820;2022-09-03T15:05:13;29.70;1.00
10276;DHT22;5183;51.190;6.820;2022-09-03T15:07:48;29.60;1.00
10276;DHT22;5183;51.190;6.820;2022-09-03T15:10:24;29.50;1.00
10276;DHT22;5183;51.190;6.820;2022-09-03T15:12:55;29.60;1.00
10276;DHT22;5183;51.190;6.820;2022-09-03T15:15:29;29.70;1.00
10276;DHT22;5183;51.190;6.820;2022-09-03T15:18:10;29.90;1.00
10276;DHT22;5183;51.190;6.820;2022-09-03T15:20:48;30.00;1.00
10276;DHT22;5183;51.190;6.820;2022-09-03T15:23:22;30.20;1.00
10276;DHT22;5183;51.190;6.820;2022-09-03T15:29:14;30.50;1.00
10276;DHT22;5183;51.190;6.820;2022-09-03T15:31:48;30.70;1.00
10276;DHT22;5183;51.190;6.820;2022-09-03T15:34:45;30.40;1.00
10276;DHT22;5183;51.190;6.820;2022-09-03T15:37:20;30.00;1.00
10276;DHT22;5183;51.190;6.820;2022-09-03T15:40:00;29.70;1.00
10276;DHT22;5183;51.190;6.820;2022-09-03T15:42:29;29.50;1.00
10276;DHT22;5183;51.190;6.820;2022-09-03T15:45:02;29.40;1.00
10276;DHT22;5183;51.190;6.820;2022-09-03T15:47:39;29.20;1.00
10276;DHT22;5183;51.190;6.820;2022-09-03T15:50:14;29.00;1.00
10276;DHT22;5183;51.190;6.820;2022-09-03T15:52:51;28.90;1.00
10276;DHT22;5183;51.190;6.820;2022-09-03T15:55:29;28.50;1.00
10276;DHT22;5183;51.190;6.820;2022-09-03T15:58:00;28.40;1.00
10276;DHT22;5183;51.190;6.820;2022-09-03T16:00:44;28.20;1.00
10276;DHT22;5183;51.190;6.820;2022-09-03T16:03:19;28.00;1.00
10276;DHT22;5183;51.190;6.820;2022-09-03T16:05:53;27.70;1.60
10276;DHT22;5183;51.190;6.820;2022-09-03T16:08:23;27.70;4.70
10276;DHT22;5183;51.190;6.820;2022-09-03T16:10:58;27.60;7.10
10276;DHT22;5183;51.190;6.820;2022-09-03T16:13:42;27.60;3.00
10276;DHT22;5183;51.190;6.820;2022-09-03T16:16:14;27.40;30.10
10276;DHT22;5183;51.190;6.820;2022-09-03T16:18:53;27.30;11.80
10276;DHT22;5183;51.190;6.820;2022-09-03T16:21:25;27.20;15.60
10276;DHT22;5183;51.190;6.820;2022-09-03T16:23:57;27.10;17.60
10276;DHT22;5183;51.190;6.820;2022-09-03T16:26:30;27.10;17.20
10276;DHT22;5183;51.190;6.820;2022-09-03T16:29:02;27.00;23.20
10276;DHT22;5183;51.190;6.820;2022-09-03T16:31:41;26.80;30.10
10276;DHT22;5183;51.190;6.820;2022-09-03T16:34:16;26.70;34.60
10276;DHT22;5183;51.190;6.820;2022-09-03T16:36:54;26.70;38.10